Time;durP1;ratioP1;P1;durP2;ratioP2;P2;SDS_P1;SDS_P2;PMS_P1;PMS_P2;Temp;Humidity;BMP_temperature;BMP_pressure;BME280_temperature;BME280_humidity;BME280_pressure;Samples;Min_cycle;Max_cycle;Signal;HPM_P1;HPM_P2
2021/10/14 00:00:54;;;;;;;7.07;3.97;;;12.30;99.90;;;;;;4956192;28;20380;-73
2021/10/14 00:03:20;;;;;;;7.63;4.28;;;12.30;99.90;;;;;;4955617;28;20023;-73
2021/10/14 00:05:46;;;;;;;8.48;4.05;;;12.30;99.90;;;;;;4956036;28;20047;-72
2021/10/14 00:08:11;;;;;;;5.68;3.83;;;12.30;99.90;;;;;;4954894;29;20110;-73
2021/10/14 00:10:37;;;;;;;4.75;3.25;;;12.30;99.90;;;;;;4955237;28;20079;-72
2021/10/14 00:13:03;;;;;;;4.75;3.85;;;12.30;99.90;;;;;;4954692;29;20024;-72
2021/10/14 00:15:28;;;;;;;6.78;4.03;;;12.40;99.90;;;;;;4953560;28;20062;-73
2021/10/14 00:17:54;;;;;;;4.82;3.15;;;12.40;99.90;;;;;;4953820;29;20030;-72
2021/10/14 00:20:20;;;;;;;13.10;3.70;;;12.40;99.90;;;;;;4956122;28;20114;-72
2021/10/14 00:22:46;;;;;;;8.73;4.10;;;12.40;99.90;;;;;;4955652;28;20118;-73
2021/10/14 00:25:12;;;;;;;8.45;4.55;;;12.40;99.90;;;;;;4953828;29;20527;-74
2021/10/14 00:27:37;;;;;;;5.70;3.45;;;12.40;99.90;;;;;;4954057;28;20047;-74
2021/10/14 00:30:04;;;;;;;7.97;3.55;;;12.40;99.90;;;;;;4954332;29;20058;-75
2021/10/14 00:32:30;;;;;;;5.43;3.60;;;12.40;99.90;;;;;;4954766;28;20034;-73
2021/10/14 00:34:56;;;;;;;9.50;4.60;;;12.40;99.90;;;;;;4955564;28;20023;-73
2021/10/14 00:37:21;;;;;;;7.85;4.30;;;12.40;99.90;;;;;;4955560;28;20383;-74
2021/10/14 00:39:48;;;;;;;5.32;3.72;;;12.50;99.90;;;;;;4954533;28;20039;-73
2021/10/14 00:42:13;;;;;;;7.38;4.53;;;12.50;99.90;;;;;;4953971;29;20027;-73
2021/10/14 00:44:45;;;;;;;9.20;5.00;;;12.50;99.90;;;;;;4953252;29;20152;-72
2021/10/14 00:47:10;;;;;;;9.52;4.80;;;12.50;99.90;;;;;;4955220;28;20110;-73
2021/10/14 00:49:36;;;;;;;8.43;5.05;;;12.50;99.90;;;;;;4955110;28;20102;-73
2021/10/14 00:52:02;;;;;;;8.25;4.95;;;12.50;99.90;;;;;;4953334;29;20114;-72
2021/10/14 00:54:27;;;;;;;6.40;4.65;;;12.50;99.90;;;;;;4953773;29;20472;-72
2021/10/14 00:56:54;;;;;;;5.97;4.90;;;12.50;99.90;;;;;;4955216;28;20543;-73
2021/10/14 00:59:20;;;;;;;9.25;4.68;;;12.50;99.90;;;;;;4954621;28;20034;-72
2021/10/14 01:01:46;;;;;;;8.52;5.50;;;12.50;99.90;;;;;;4954881;28;20027;-73
2021/10/14 01:04:12;;;;;;;6.35;4.95;;;12.50;99.90;;;;;;4955153;28;20046;-72
2021/10/14 01:06:37;;;;;;;7.55;5.43;;;12.50;99.90;;;;;;4952776;29;20026;-73
2021/10/14 01:09:03;;;;;;;8.02;5.78;;;12.50;99.90;;;;;;4954999;28;20114;-73
2021/10/14 01:11:28;;;;;;;7.03;5.80;;;12.60;99.90;;;;;;4951791;28;20027;-73
2021/10/14 01:13:54;;;;;;;6.72;5.95;;;12.50;99.90;;;;;;4954388;28;20102;-72
2021/10/14 01:16:19;;;;;;;9.38;6.57;;;12.60;99.90;;;;;;4953526;29;20015;-73
2021/10/14 01:18:45;;;;;;;7.40;5.93;;;12.60;99.90;;;;;;4954242;28;20043;-72
2021/10/14 01:21:11;;;;;;;10.13;6.57;;;12.60;99.90;;;;;;4954178;29;20023;-72
2021/10/14 01:23:38;;;;;;;9.55;7.20;;;12.60;99.90;;;;;;4954520;28;20086;-72
2021/10/14 01:26:04;;;;;;;11.95;8.50;;;12.60;99.90;;;;;;4954363;28;20019;-72
2021/10/14 01:28:30;;;;;;;10.73;8.85;;;12.50;99.90;;;;;;4953714;29;20038;-73
2021/10/14 01:30:57;;;;;;;11.00;8.25;;;12.50;99.90;;;;;;4954645;28;20035;-73
2021/10/14 01:33:22;;;;;;;10.02;7.72;;;12.50;99.90;;;;;;4954555;28;20027;-72
2021/10/14 01:35:48;;;;;;;13.52;8.77;;;12.50;99.90;;;;;;4952558;28;20035;-72
2021/10/14 01:38:13;;;;;;;13.15;9.65;;;12.50;99.90;;;;;;4954495;28;20043;-73
2021/10/14 01:40:39;;;;;;;12.40;8.93;;;12.50;99.90;;;;;;4953301;28;20118;-73
2021/10/14 01:43:04;;;;;;;13.18;9.98;;;12.50;99.90;;;;;;4952131;29;20016;-74
2021/10/14 01:45:30;;;;;;;10.13;8.85;;;12.50;99.90;;;;;;4953229;29;20038;-72
2021/10/14 01:47:55;;;;;;;13.02;10.77;;;12.50;99.90;;;;;;4953566;29;20022;-75
2021/10/14 01:50:21;;;;;;;13.98;10.43;;;12.50;99.90;;;;;;4954254;28;20023;-76
2021/10/14 01:52:46;;;;;;;11.23;9.68;;;12.50;99.90;;;;;;4954146;29;20020;-73
2021/10/14 01:55:12;;;;;;;17.92;10.73;;;12.50;99.90;;;;;;4953666;29;20852;-73
2021/10/14 01:57:37;;;;;;;12.55;10.75;;;12.50;99.90;;;;;;4953738;28;20031;-72
2021/10/14 02:00:04;;;;;;;18.02;12.60;;;12.50;99.90;;;;;;4954187;28;20372;-73
2021/10/14 02:02:30;;;;;;;13.60;11.00;;;12.50;99.90;;;;;;4953552;28;20024;-73
2021/10/14 02:04:55;;;;;;;13.73;11.13;;;12.50;99.90;;;;;;4954133;28;20034;-72
2021/10/14 02:07:21;;;;;;;15.68;12.35;;;12.50;99.90;;;;;;4954190;29;20023;-72
2021/10/14 02:09:46;;;;;;;13.73;11.05;;;12.50;99.90;;;;;;4953361;29;20086;-73
2021/10/14 02:12:12;;;;;;;14.70;11.55;;;12.50;99.90;;;;;;4954150;28;20027;-72
2021/10/14 02:14:38;;;;;;;15.27;12.50;;;12.50;99.90;;;;;;4952413;28;20178;-72
2021/10/14 02:17:03;;;;;;;19.15;13.50;;;12.50;99.90;;;;;;4953412;28;20027;-72
2021/10/14 02:19:29;;;;;;;18.23;13.60;;;12.50;99.90;;;;;;4953752;28;20067;-72
2021/10/14 02:21:54;;;;;;;15.02;13.38;;;12.60;99.90;;;;;;4954057;29;20023;-72
2021/10/14 02:24:20;;;;;;;18.42;13.90;;;12.60;99.90;;;;;;4953677;29;20073;-72
2021/10/14 02:26:45;;;;;;;17.80;14.55;;;12.60;99.90;;;;;;4953622;29;20090;-73
2021/10/14 02:29:12;;;;;;;19.58;14.73;;;12.60;99.90;;;;;;4954206;29;20023;-73
2021/10/14 02:31:39;;;;;;;21.02;16.35;;;12.60;99.90;;;;;;4953487;29;20016;-74
2021/10/14 02:34:06;;;;;;;18.13;13.93;;;12.60;99.90;;;;;;4953963;28;20535;-73
2021/10/14 02:36:31;;;;;;;19.17;15.82;;;12.60;99.90;;;;;;4953666;28;20083;-73
2021/10/14 02:38:57;;;;;;;17.70;14.82;;;12.60;99.90;;;;;;4956325;29;20107;-73
2021/10/14 02:41:22;;;;;;;19.38;16.30;;;12.60;99.90;;;;;;4958115;29;20024;-75
2021/10/14 02:43:48;;;;;;;18.65;13.82;;;12.70;99.90;;;;;;4956205;29;20380;-76
2021/10/14 02:46:13;;;;;;;23.67;17.40;;;12.60;99.90;;;;;;4955639;29;20034;-75
2021/10/14 02:48:39;;;;;;;18.45;14.93;;;12.70;99.90;;;;;;4956145;29;20023;-75
2021/10/14 02:51:04;;;;;;;22.27;15.68;;;12.70;99.90;;;;;;4957423;29;20031;-75
2021/10/14 02:53:30;;;;;;;23.30;17.40;;;12.70;99.90;;;;;;4956536;29;20023;-74
2021/10/14 02:55:56;;;;;;;19.95;16.50;;;12.70;99.90;;;;;;4956183;28;20027;-73
2021/10/14 02:58:21;;;;;;;25.48;18.05;;;12.70;99.90;;;;;;4956765;28;20495;-72
2021/10/14 03:00:47;;;;;;;27.42;19.65;;;12.70;99.90;;;;;;4957169;28;20031;-73
2021/10/14 03:03:12;;;;;;;25.33;18.13;;;12.70;99.90;;;;;;4957249;29;20024;-73
2021/10/14 03:05:38;;;;;;;24.83;18.52;;;12.70;99.90;;;;;;4956403;29;20031;-73
2021/10/14 03:08:04;;;;;;;24.30;17.45;;;12.70;99.90;;;;;;4955845;29;20034;-72
2021/10/14 03:10:29;;;;;;;27.58;18.13;;;12.70;99.90;;;;;;4956959;28;20337;-74
2021/10/14 03:12:55;;;;;;;25.05;17.63;;;12.70;99.90;;;;;;4956494;29;20027;-73
2021/10/14 03:15:20;;;;;;;27.30;18.52;;;12.80;99.90;;;;;;4957178;29;20118;-73
2021/10/14 03:17:46;;;;;;;24.75;18.45;;;12.70;99.90;;;;;;4956767;29;20074;-72
2021/10/14 03:20:11;;;;;;;25.55;16.85;;;12.80;99.90;;;;;;4956264;29;20468;-72
2021/10/14 03:22:37;;;;;;;20.80;16.48;;;12.70;99.90;;;;;;4955308;28;20015;-73
2021/10/14 03:25:03;;;;;;;22.98;17.27;;;12.70;99.90;;;;;;4951753;29;20086;-72
2021/10/14 03:27:29;;;;;;;25.00;17.88;;;12.80;99.90;;;;;;4938013;28;20055;-73
2021/10/14 03:29:54;;;;;;;23.58;17.80;;;12.80;99.90;;;;;;4955558;29;20111;-72
2021/10/14 03:32:20;;;;;;;21.95;17.23;;;12.80;99.90;;;;;;4956822;29;20063;-73
2021/10/14 03:34:45;;;;;;;20.00;16.65;;;12.80;99.90;;;;;;4955890;29;20023;-72
2021/10/14 03:37:11;;;;;;;21.10;15.77;;;12.80;99.90;;;;;;4956582;29;20053;-73
2021/10/14 03:39:36;;;;;;;20.08;16.20;;;12.80;99.90;;;;;;4956169;28;20039;-72
2021/10/14 03:42:02;;;;;;;20.83;15.48;;;12.80;99.90;;;;;;4955740;28;20034;-73
2021/10/14 03:44:27;;;;;;;23.60;16.73;;;12.80;99.90;;;;;;4955198;29;20388;-73
2021/10/14 03:46:53;;;;;;;20.05;15.75;;;12.80;99.90;;;;;;4956526;29;20110;-72
2021/10/14 03:49:19;;;;;;;20.30;15.55;;;12.80;99.90;;;;;;4953702;28;20487;-72
2021/10/14 03:51:44;;;;;;;19.75;15.70;;;12.80;99.90;;;;;;4956283;29;20027;-72
2021/10/14 03:54:10;;;;;;;22.83;14.95;;;12.80;99.90;;;;;;4956238;28;20550;-72
2021/10/14 03:56:36;;;;;;;16.70;15.00;;;12.80;99.90;;;;;;4951391;28;20027;-72
2021/10/14 03:59:01;;;;;;;17.92;15.55;;;12.80;99.90;;;;;;4939040;29;20511;-72
2021/10/14 04:01:27;;;;;;;23.08;17.10;;;12.80;99.90;;;;;;4936626;29;20034;-74
2021/10/14 04:03:52;;;;;;;21.65;16.58;;;12.90;99.90;;;;;;4936892;29;20071;-72
2021/10/14 04:06:18;;;;;;;17.95;16.05;;;12.90;99.90;;;;;;4954928;29;20071;-73
2021/10/14 04:08:44;;;;;;;20.65;16.20;;;12.90;99.90;;;;;;4938668;28;20114;-72
2021/10/14 04:11:09;;;;;;;16.83;14.50;;;12.90;99.90;;;;;;4935567;29;20042;-72
2021/10/14 04:13:35;;;;;;;16.38;13.77;;;12.90;99.90;;;;;;4936672;29;20030;-73
2021/10/14 04:16:00;;;;;;;17.60;14.63;;;12.90;99.90;;;;;;4936355;29;20499;-74
2021/10/14 04:18:26;;;;;;;15.60;13.98;;;12.90;99.90;;;;;;4935222;29;20090;-72
2021/10/14 04:20:51;;;;;;;17.02;14.48;;;12.90;99.90;;;;;;4942618;28;20054;-77
2021/10/14 04:23:17;;;;;;;18.85;14.98;;;12.90;99.90;;;;;;4958532;28;20498;-73
2021/10/14 04:25:43;;;;;;;18.10;14.23;;;12.90;99.90;;;;;;4967142;28;20677;-73
2021/10/14 04:28:09;;;;;;;19.55;15.30;;;12.90;99.90;;;;;;4967136;28;20423;-72
2021/10/14 04:30:34;;;;;;;20.02;15.63;;;12.90;99.90;;;;;;4973376;28;20057;-72
2021/10/14 04:33:00;;;;;;;19.65;16.88;;;12.90;99.90;;;;;;4967932;28;20538;-71
2021/10/14 04:35:26;;;;;;;17.17;15.30;;;12.90;99.90;;;;;;4952349;29;20016;-71
2021/10/14 04:37:52;;;;;;;16.83;15.13;;;12.90;99.90;;;;;;4954018;29;20077;-72
2021/10/14 04:40:17;;;;;;;17.33;14.48;;;12.90;99.90;;;;;;4965901;28;20070;-74
2021/10/14 04:42:43;;;;;;;16.85;14.80;;;12.90;99.90;;;;;;4973652;28;20042;-75
2021/10/14 04:45:08;;;;;;;19.02;15.50;;;12.90;99.90;;;;;;4972943;28;20364;-74
2021/10/14 04:47:34;;;;;;;19.58;15.40;;;12.90;99.90;;;;;;4971074;28;20483;-75
2021/10/14 04:50:00;;;;;;;17.35;15.43;;;12.90;99.90;;;;;;4935188;29;20023;-74
2021/10/14 04:52:25;;;;;;;18.35;15.10;;;12.90;99.90;;;;;;4934747;29;20550;-74
2021/10/14 04:54:51;;;;;;;16.92;14.55;;;12.90;99.90;;;;;;4936346;29;20032;-74
2021/10/14 04:57:16;;;;;;;14.35;12.82;;;12.90;99.90;;;;;;4935784;29;20047;-72
2021/10/14 04:59:42;;;;;;;17.17;14.23;;;12.90;99.90;;;;;;4934003;29;20028;-76
2021/10/14 05:02:07;;;;;;;15.82;13.98;;;13.00;99.90;;;;;;4934719;29;20070;-77
2021/10/14 05:04:33;;;;;;;17.23;14.77;;;13.00;99.90;;;;;;4946073;29;20027;-73
2021/10/14 05:06:58;;;;;;;18.30;14.82;;;13.00;99.90;;;;;;4951768;28;20036;-74
2021/10/14 05:09:24;;;;;;;21.05;15.10;;;13.00;99.90;;;;;;4953513;29;20096;-73
2021/10/14 05:11:49;;;;;;;18.65;15.57;;;13.00;99.90;;;;;;4934583;29;20102;-76
2021/10/14 05:14:15;;;;;;;17.80;14.00;;;13.00;99.90;;;;;;4935178;29;20103;-75
2021/10/14 05:16:41;;;;;;;18.85;15.57;;;13.00;99.90;;;;;;4943927;28;20058;-74
2021/10/14 05:19:06;;;;;;;20.95;15.20;;;12.90;99.90;;;;;;4933189;29;20059;-74
2021/10/14 05:21:32;;;;;;;20.58;16.50;;;12.90;99.90;;;;;;4933759;29;20024;-74
2021/10/14 05:24:02;;;;;;;20.48;16.17;;;12.90;99.90;;;;;;4935412;29;20031;-75
2021/10/14 05:26:28;;;;;;;19.08;15.73;;;12.90;99.90;;;;;;4932790;29;20043;-74
2021/10/14 05:28:55;;;;;;;16.98;15.20;;;12.90;99.90;;;;;;4943884;28;20054;-73
2021/10/14 05:31:21;;;;;;;17.63;13.90;;;12.90;99.90;;;;;;4941338;29;20480;-74
2021/10/14 05:33:47;;;;;;;14.20;12.70;;;12.90;99.90;;;;;;4934106;29;20031;-76
2021/10/14 05:36:12;;;;;;;16.25;13.98;;;13.00;99.90;;;;;;4934360;29;20082;-72
2021/10/14 05:38:38;;;;;;;15.75;13.73;;;13.00;99.90;;;;;;4935310;29;20400;-73
2021/10/14 05:41:03;;;;;;;17.20;14.85;;;13.00;99.90;;;;;;4933412;29;20024;-72
2021/10/14 05:43:29;;;;;;;16.55;14.85;;;13.00;99.90;;;;;;4941150;29;20417;-72
2021/10/14 15:12:07;;;;;;;10.25;7.88;;;15.80;99.90;;;;;;5345736;23;20052;-72
2021/10/14 15:14:33;;;;;;;9.77;8.07;;;15.80;99.90;;;;;;4914371;29;20484;-71
2021/10/14 15:16:58;;;;;;;10.10;8.32;;;15.80;99.90;;;;;;4916146;29;20179;-72
2021/10/14 15:19:24;;;;;;;10.98;8.63;;;15.80;99.90;;;;;;4916451;29;20032;-72
2021/10/14 15:21:49;;;;;;;10.70;9.57;;;15.80;99.90;;;;;;4917431;29;20384;-72
2021/10/14 15:24:15;;;;;;;12.68;10.18;;;15.70;99.90;;;;;;4918563;29;20028;-71
2021/10/14 15:26:41;;;;;;;10.30;9.13;;;15.80;99.90;;;;;;4918016;29;20039;-71
2021/10/14 15:29:06;;;;;;;10.55;9.40;;;15.80;99.90;;;;;;4918278;29;20024;-72
2021/10/14 15:31:33;;;;;;;10.50;9.40;;;15.70;99.90;;;;;;4918138;29;20028;-72
2021/10/14 15:33:59;;;;;;;11.40;10.20;;;15.70;99.90;;;;;;4916594;29;20111;-73
2021/10/14 15:36:25;;;;;;;13.02;10.55;;;15.70;99.90;;;;;;4916087;29;20035;-74
2021/10/14 15:38:50;;;;;;;11.38;10.15;;;15.70;99.90;;;;;;4917261;29;20028;-73
2021/10/14 15:41:16;;;;;;;14.32;12.27;;;15.70;99.90;;;;;;4917559;29;20055;-74
2021/10/14 15:43:43;;;;;;;15.20;11.88;;;15.70;99.90;;;;;;4917908;29;20433;-73
2021/10/14 15:46:11;;;;;;;15.15;12.52;;;15.70;99.90;;;;;;4917242;29;20127;-72
2021/10/14 15:48:38;;;;;;;13.63;12.20;;;15.60;99.90;;;;;;4916275;29;20024;-73
2021/10/14 15:51:04;;;;;;;14.00;11.15;;;15.60;99.90;;;;;;4913586;29;20481;-74
2021/10/14 15:53:30;;;;;;;11.18;10.02;;;15.60;99.90;;;;;;4913560;29;20099;-73
2021/10/14 15:55:56;;;;;;;10.88;9.77;;;15.60;99.90;;;;;;4912059;29;20028;-77
2021/10/14 15:58:23;;;;;;;11.52;10.20;;;15.60;99.90;;;;;;4913274;29;20115;-73
2021/10/14 16:00:49;;;;;;;11.18;9.98;;;15.60;99.90;;;;;;4914103;29;20043;-82
2021/10/14 16:03:16;;;;;;;12.55;10.60;;;15.50;99.90;;;;;;4914273;29;20480;-73
2021/10/14 16:05:42;;;;;;;12.23;10.65;;;15.50;99.90;;;;;;4913258;29;20035;-73
2021/10/14 16:08:10;;;;;;;14.15;10.77;;;15.50;99.90;;;;;;4932815;29;20027;-73
2021/10/14 16:10:36;;;;;;;13.65;11.55;;;15.40;99.90;;;;;;4932103;29;20023;-74
2021/10/14 16:13:02;;;;;;;13.15;10.98;;;15.40;99.90;;;;;;4931825;29;20056;-72
2021/10/14 16:15:28;;;;;;;12.55;11.30;;;15.40;99.90;;;;;;4921309;29;20047;-72
2021/10/14 16:17:55;;;;;;;12.65;10.40;;;15.30;99.90;;;;;;4913455;29;20028;-75
2021/10/14 16:20:21;;;;;;;12.55;10.77;;;15.20;99.90;;;;;;4914163;29;20467;-72
2021/10/14 16:22:46;;;;;;;11.52;10.20;;;15.20;99.90;;;;;;4912795;29;20107;-73
2021/10/14 16:25:12;;;;;;;12.00;9.32;;;15.10;99.90;;;;;;4912108;29;20122;-74
2021/10/14 16:27:40;;;;;;;10.02;8.27;;;15.10;99.90;;;;;;4928088;29;20046;-74
2021/10/14 16:30:08;;;;;;;9.45;8.00;;;15.00;99.90;;;;;;4913593;29;20027;-74
2021/10/14 16:32:53;;;;;;;10.90;8.15;;;15.00;99.90;;;;;;4911703;29;20063;-73
2021/10/14 16:35:18;;;;;;;9.63;8.60;;;15.00;99.90;;;;;;4944578;29;20035;-73
2021/10/14 16:37:44;;;;;;;11.13;8.45;;;15.00;99.90;;;;;;4925085;29;20427;-74
2021/10/14 16:40:10;;;;;;;14.10;10.43;;;14.90;99.90;;;;;;4910449;29;20082;-75
2021/10/14 16:42:39;;;;;;;15.70;10.73;;;15.00;99.90;;;;;;4910559;29;20548;-77
2021/10/14 16:45:06;;;;;;;12.27;9.75;;;15.00;99.90;;;;;;4912094;29;20020;-73
2021/10/14 16:47:36;;;;;;;18.67;14.23;;;15.00;99.90;;;;;;4912379;29;20032;-73
2021/10/14 16:50:03;;;;;;;19.60;15.45;;;15.00;99.90;;;;;;4913311;29;20506;-73
2021/10/14 16:52:29;;;;;;;18.60;12.68;;;15.00;99.90;;;;;;4912042;29;20111;-75
2021/10/14 16:54:55;;;;;;;13.60;10.80;;;15.00;99.90;;;;;;4912447;29;20131;-75
2021/10/14 16:57:20;;;;;;;14.88;10.80;;;15.00;99.90;;;;;;4927442;29;20477;-76
2021/10/14 16:59:46;;;;;;;13.48;9.93;;;15.00;99.90;;;;;;4913132;29;20477;-73
2021/10/14 17:02:12;;;;;;;12.82;8.90;;;15.00;99.90;;;;;;4912042;29;20026;-74
2021/10/14 17:04:37;;;;;;;11.98;8.80;;;15.00;99.90;;;;;;4912623;29;20096;-74
2021/10/14 17:07:03;;;;;;;13.45;8.98;;;15.00;99.90;;;;;;4912827;29;20063;-73
2021/10/14 17:09:30;;;;;;;11.40;9.00;;;15.00;99.90;;;;;;4910933;29;20055;-74
2021/10/14 17:11:56;;;;;;;12.18;9.75;;;15.00;99.90;;;;;;4911730;29;20048;-75
2021/10/14 17:14:24;;;;;;;13.63;10.38;;;15.00;99.90;;;;;;4912922;29;20087;-73
2021/10/14 17:16:49;;;;;;;10.52;9.00;;;15.00;99.90;;;;;;4913546;29;20460;-74
2021/10/14 17:21:52;;;;;;;11.07;8.88;;;15.00;99.90;;;;;;4912220;29;20457;-74
2021/10/14 17:35:39;;;;;;;12.73;10.30;;;14.90;99.90;;;;;;4913198;29;20054;-72
2021/10/14 17:38:05;;;;;;;12.45;10.30;;;14.90;99.90;;;;;;4910709;29;20095;-73
2021/10/14 17:40:34;;;;;;;14.02;11.30;;;14.90;99.90;;;;;;4911343;29;20099;-73
2021/10/14 17:43:04;;;;;;;14.40;10.88;;;14.90;99.90;;;;;;4912114;29;20395;-75
2021/10/14 17:45:33;;;;;;;13.55;10.07;;;14.90;99.90;;;;;;4911803;29;20035;-75
2021/10/14 17:47:59;;;;;;;14.82;10.73;;;14.90;99.90;;;;;;4911411;29;20032;-74
2021/10/14 17:50:30;;;;;;;13.95;10.77;;;14.90;99.90;;;;;;4911137;29;20027;-76
2021/10/14 17:52:57;;;;;;;40.60;24.13;;;14.90;99.90;;;;;;4912625;29;20382;-76
2021/10/14 17:55:23;;;;;;;65.68;39.13;;;14.90;99.90;;;;;;4912066;29;20051;-75
2021/10/14 17:57:49;;;;;;;98.72;58.88;;;14.90;99.90;;;;;;4910798;29;20040;-74
2021/10/14 18:00:16;;;;;;;97.80;58.03;;;14.90;99.90;;;;;;4910607;29;20039;-79
2021/10/14 18:02:44;;;;;;;95.20;59.53;;;14.80;99.90;;;;;;4922401;29;20020;-75
2021/10/14 18:05:25;;;;;;;65.85;42.22;;;14.80;99.90;;;;;;4911278;29;20028;-74
2021/10/14 18:08:24;;;;;;;31.70;24.75;;;14.90;99.90;;;;;;4911187;29;20048;-76
2021/10/14 18:38:13;;;;;;;35.47;26.65;;;14.70;99.90;;;;;;4911212;29;20496;-77
2021/10/14 18:40:41;;;;;;;31.40;23.55;;;14.70;99.90;;;;;;4911993;29;20048;-75
2021/10/14 18:43:12;;;;;;;40.13;28.67;;;14.70;99.90;;;;;;4909394;29;20063;-77
2021/10/14 18:45:39;;;;;;;35.38;24.95;;;14.70;99.90;;;;;;4912077;29;20066;-76
2021/10/14 18:48:05;;;;;;;23.95;19.50;;;14.70;99.90;;;;;;4910874;29;20532;-75
2021/10/14 18:53:06;;;;;;;35.85;24.38;;;14.70;99.90;;;;;;4912214;29;20035;-76
2021/10/14 18:55:31;;;;;;;31.95;22.83;;;14.70;99.90;;;;;;4910759;29;20383;-75
2021/10/14 18:57:57;;;;;;;41.70;27.42;;;14.70;99.90;;;;;;4911455;29;20024;-74
2021/10/14 19:00:22;;;;;;;34.83;23.13;;;14.70;99.90;;;;;;4909801;29;20068;-75
2021/10/14 19:03:32;;;;;;;30.75;20.35;;;14.70;99.90;;;;;;4910647;29;20033;-74
2021/10/14 19:05:41;;;;;;;32.38;22.48;;;14.70;99.90;;;;;;4908373;29;20100;-73
2021/10/14 19:13:26;;;;;;;25.95;17.48;;;14.60;99.90;;;;;;4911816;29;20048;-74
2021/10/14 19:15:57;;;;;;;32.20;21.98;;;14.60;99.90;;;;;;4911829;29;20503;-74
2021/10/14 20:21:29;;;;;;;18.02;13.90;;;14.20;99.90;;;;;;4903262;29;20043;-76
2021/10/14 20:23:56;;;;;;;22.95;16.60;;;14.20;99.90;;;;;;4916849;29;20156;-75
2021/10/14 20:26:21;;;;;;;17.50;14.05;;;14.20;99.90;;;;;;4915756;29;20032;-73
2021/10/14 20:28:48;;;;;;;18.63;16.30;;;14.30;99.90;;;;;;4916678;29;20024;-74
2021/10/14 20:31:15;;;;;;;24.08;18.70;;;14.30;99.90;;;;;;4916478;29;20030;-74
2021/10/14 20:33:55;;;;;;;18.88;15.30;;;14.30;99.90;;;;;;4917136;29;20091;-75
2021/10/14 20:36:21;;;;;;;14.30;11.90;;;14.20;99.90;;;;;;4916789;29;20024;-76
2021/10/14 20:38:47;;;;;;;12.23;10.50;;;14.30;99.90;;;;;;4915735;29;20115;-74
2021/10/14 20:41:12;;;;;;;11.07;9.82;;;14.20;99.90;;;;;;4916031;29;20032;-75
2021/10/14 20:43:38;;;;;;;11.00;9.60;;;14.20;99.90;;;;;;4914943;29;20115;-75
2021/10/14 20:46:03;;;;;;;11.45;9.70;;;14.20;99.90;;;;;;4916470;29;20035;-76
2021/10/14 20:48:30;;;;;;;12.00;9.52;;;14.20;99.90;;;;;;4917027;29;20424;-75
2021/10/14 20:50:56;;;;;;;14.27;9.40;;;14.20;99.90;;;;;;4915663;29;20087;-75
2021/10/14 20:53:28;;;;;;;12.07;9.25;;;14.20;99.90;;;;;;4915639;29;20035;-74
2021/10/14 21:04:05;;;;;;;9.10;7.35;;;14.10;99.90;;;;;;4916569;29;20043;-75
2021/10/14 21:06:31;;;;;;;9.02;7.70;;;14.10;99.90;;;;;;4916770;29;20024;-76
2021/10/14 21:08:57;;;;;;;10.10;8.43;;;14.10;99.90;;;;;;4916818;29;20461;-75
2021/10/14 21:11:22;;;;;;;13.13;8.38;;;14.10;99.90;;;;;;4914451;29;20028;-74
2021/10/14 21:13:48;;;;;;;13.23;8.02;;;14.10;99.90;;;;;;4916546;29;20032;-77
2021/10/14 21:16:14;;;;;;;9.77;7.93;;;14.00;99.90;;;;;;4916714;29;20032;-77
2021/10/14 21:18:39;;;;;;;11.18;7.72;;;14.00;99.90;;;;;;4915672;29;20076;-73
2021/10/14 21:21:08;;;;;;;11.48;7.95;;;14.00;99.90;;;;;;4915406;29;20047;-74
2021/10/14 21:23:36;;;;;;;18.10;12.07;;;14.00;99.90;;;;;;4916108;29;20095;-75
2021/10/14 21:26:07;;;;;;;24.13;13.52;;;14.00;99.90;;;;;;4915877;29;20050;-75
2021/10/14 21:28:48;;;;;;;27.63;14.25;;;14.00;99.90;;;;;;4916329;29;20495;-74
2021/10/14 21:36:42;;;;;;;24.02;15.02;;;13.90;99.90;;;;;;4916227;29;20110;-72
2021/10/14 21:39:07;;;;;;;43.95;21.95;;;13.90;99.90;;;;;;4915618;29;20040;-72
2021/10/14 21:41:33;;;;;;;25.98;14.88;;;13.90;99.90;;;;;;4915756;29;20095;-72
2021/10/14 21:43:58;;;;;;;22.50;13.40;;;13.90;99.90;;;;;;4914742;29;20126;-73
2021/10/14 21:46:24;;;;;;;27.88;17.20;;;13.90;99.90;;;;;;4915350;29;20028;-74
2021/10/14 21:48:49;;;;;;;38.30;22.13;;;13.90;99.90;;;;;;4916337;29;20066;-75
2021/10/14 21:51:15;;;;;;;30.02;16.52;;;13.90;99.90;;;;;;4916179;29;20075;-76
2021/10/14 21:53:40;;;;;;;19.58;12.75;;;13.90;99.90;;;;;;4915072;29;20084;-73
2021/10/14 21:56:06;;;;;;;20.00;13.68;;;13.90;99.90;;;;;;4916160;29;20031;-74
2021/10/14 21:58:34;;;;;;;40.80;26.55;;;13.90;99.90;;;;;;4915653;29;20060;-75
2021/10/14 22:01:01;;;;;;;79.35;40.55;;;13.90;99.90;;;;;;4914125;29;20050;-76
2021/10/14 22:03:26;;;;;;;47.45;25.70;;;13.90;99.90;;;;;;4915779;29;20013;-76
2021/10/14 22:05:52;;;;;;;44.72;27.33;;;13.90;99.90;;;;;;4916095;29;20095;-75
2021/10/14 22:08:17;;;;;;;27.73;19.60;;;13.90;99.90;;;;;;4914009;29;20053;-73
2021/10/14 22:10:48;;;;;;;22.65;14.65;;;13.90;99.90;;;;;;4916273;29;20028;-76
2021/10/14 22:13:16;;;;;;;18.08;12.55;;;13.90;99.90;;;;;;4915524;29;20048;-73
2021/10/14 22:15:42;;;;;;;17.75;12.45;;;13.90;99.90;;;;;;4915161;29;20028;-73
2021/10/14 22:18:07;;;;;;;17.75;13.02;;;13.90;99.90;;;;;;4915837;29;20082;-73
2021/10/14 22:20:33;;;;;;;17.33;12.80;;;13.90;99.90;;;;;;4914380;29;20040;-73
2021/10/14 22:22:58;;;;;;;14.05;11.30;;;13.90;99.90;;;;;;4915158;29;20036;-73
2021/10/14 22:25:24;;;;;;;11.77;9.50;;;13.90;99.90;;;;;;4915635;29;20032;-73
2021/10/14 22:27:50;;;;;;;14.30;10.18;;;13.90;99.90;;;;;;4915232;29;20025;-75
2021/10/14 22:30:15;;;;;;;16.33;9.73;;;13.90;99.90;;;;;;4915723;29;20032;-76
2021/10/14 22:32:42;;;;;;;22.23;13.18;;;13.90;99.90;;;;;;4915329;29;20031;-75
2021/10/14 22:35:09;;;;;;;38.95;22.15;;;13.90;99.90;;;;;;4914130;29;20036;-74
2021/10/14 22:37:35;;;;;;;49.47;27.50;;;13.90;99.90;;;;;;4914039;29;20381;-73
2021/10/14 22:40:00;;;;;;;40.13;22.75;;;13.90;99.90;;;;;;4915730;29;20039;-72
2021/10/14 22:42:26;;;;;;;27.35;16.98;;;13.90;99.90;;;;;;4913381;29;20028;-72
2021/10/14 22:44:52;;;;;;;41.80;20.33;;;13.90;99.90;;;;;;4915737;29;20024;-71
2021/10/14 22:47:17;;;;;;;25.23;14.23;;;13.90;99.90;;;;;;4915600;29;20024;-73
2021/10/14 22:49:44;;;;;;;13.02;9.02;;;13.90;99.90;;;;;;4915019;29;20381;-73
2021/10/14 22:52:10;;;;;;;14.30;9.43;;;13.90;99.90;;;;;;4915646;29;20023;-73
2021/10/14 22:54:36;;;;;;;14.63;9.43;;;13.80;99.90;;;;;;4914905;29;20036;-72
2021/10/14 22:57:02;;;;;;;9.82;7.68;;;13.80;99.90;;;;;;4917260;29;20031;-72
2021/10/14 22:59:28;;;;;;;10.27;8.05;;;13.80;99.90;;;;;;4918612;29;20044;-73
2021/10/14 23:01:53;;;;;;;13.18;8.32;;;13.80;99.90;;;;;;4919169;29;20103;-73
2021/10/14 23:04:19;;;;;;;12.18;9.88;;;13.80;99.90;;;;;;4918318;29;20024;-73
2021/10/14 23:06:48;;;;;;;9.90;7.85;;;13.80;99.90;;;;;;4918948;29;20483;-72
2021/10/14 23:09:14;;;;;;;9.82;7.57;;;13.80;99.90;;;;;;4919018;29;20028;-73
2021/10/14 23:11:40;;;;;;;8.82;6.82;;;13.80;99.90;;;;;;4916487;29;20409;-73
2021/10/14 23:14:05;;;;;;;15.23;8.18;;;13.80;99.90;;;;;;4918789;29;20104;-73
2021/10/14 23:16:31;;;;;;;12.80;6.60;;;13.80;99.90;;;;;;4918669;29;20099;-72
2021/10/14 23:18:57;;;;;;;10.35;6.68;;;13.80;99.90;;;;;;4918144;29;20027;-73
2021/10/14 23:21:23;;;;;;;8.05;6.75;;;13.80;99.90;;;;;;4918824;29;20055;-72
2021/10/14 23:23:49;;;;;;;10.05;6.70;;;13.80;99.90;;;;;;4918674;29;20028;-72
2021/10/14 23:26:15;;;;;;;7.95;6.80;;;13.80;99.90;;;;;;4918070;29;20030;-73
2021/10/14 23:28:40;;;;;;;10.05;6.88;;;13.80;99.90;;;;;;4918309;29;20024;-73
2021/10/14 23:31:07;;;;;;;10.27;6.57;;;13.80;99.90;;;;;;4917844;29;20063;-72
2021/10/14 23:33:33;;;;;;;11.27;6.65;;;13.80;99.90;;;;;;4918116;29;20024;-72
2021/10/14 23:35:58;;;;;;;10.93;6.60;;;13.80;99.90;;;;;;4918708;29;20028;-72
2021/10/14 23:38:24;;;;;;;8.77;6.22;;;13.80;99.90;;;;;;4917596;29;20495;-73
2021/10/14 23:40:49;;;;;;;8.90;5.90;;;13.80;99.90;;;;;;4933044;29;20040;-73
2021/10/14 23:43:15;;;;;;;9.80;7.05;;;13.80;99.90;;;;;;4918277;29;20028;-72
2021/10/14 23:45:41;;;;;;;7.82;5.95;;;13.80;99.90;;;;;;4916244;29;20075;-73
2021/10/14 23:48:06;;;;;;;9.05;6.47;;;13.80;99.90;;;;;;4918026;29;20040;-72
2021/10/14 23:50:32;;;;;;;8.90;5.68;;;13.80;99.90;;;;;;4916487;29;20032;-72
2021/10/14 23:52:59;;;;;;;10.35;6.80;;;13.70;99.90;;;;;;4917450;29;20067;-73
2021/10/14 23:55:25;;;;;;;8.95;5.97;;;13.80;99.90;;;;;;4918050;29;20028;-73
2021/10/14 23:57:50;;;;;;;8.57;6.38;;;13.70;99.90;;;;;;4917023;29;20024;-76
